Mct Breithorn — HBHC — position and weather

sailwx.info

Track history (hours):
 
Tides and Currents Weather Stations Pressure Air Temp Water Temp Dewpoint Dewpoint Depression Visibility Wind Speed Wind Dir Waves Ship Positions

Mct Breithorn

Last reported at 2014-Oct-27 12:12 UTC. Time now 2014-Nov-01 06:57 UTC.
Position N 36°60' E 002°13'.

Length 165 m; draft 8.5 m.

Type: Tanker. MMSI: 269848000.

Date/timePositionNaut miles runAvg speedWind from/ knotsBaromVisibWave heightAir tempDewpointWater temp
2014-Oct-27 12:12N 36°60' E 002°13'5012.2
2014-Oct-27 08:08N 36°47' E 001°13'812.9
2014-Oct-27 07:33N 36°46' E 001°04'1912.9
2014-Oct-27 06:05N 36°41' E 000°41'712.4
2014-Oct-27 05:34N 36°39' E 000°33'1312.6
2014-Oct-27 04:34N 36°36' E 000°18'4212.4
2014-Oct-27 01:08N 36°25' W 000°33'712.0
2014-Oct-27 00:32N 36°24' W 000°42'2411.9
2014-Oct-26 22:33N 36°21' W 001°11'3313.3
2014-Oct-26 20:04N 36°18' W 001°52'913.2
2014-Oct-26 19:25N 36°17' W 002°02'15513.0
2014-Oct-26 07:33N 35°60' W 005°12'1313.2
2014-Oct-26 06:33N 35°57' W 005°28'27012.2
2014-Oct-25 08:28N 36°18' W 011°01'1112.1
2014-Oct-25 07:33N 36°19' W 011°15'1212.5
2014-Oct-25 06:33N 36°21' W 011°31'1212.4
2014-Oct-25 05:33N 36°22' W 011°46'2512.3
2014-Oct-25 03:32N 36°25' W 012°16'1212.0
2014-Oct-25 02:33N 36°26' W 012°31'52712.2
2014-Oct-23 07:11N 37°22' W 023°26'812.1
2014-Oct-23 06:33N 37°23' W 023°36'1211.9
2014-Oct-23 05:34N 37°24' W 023°50'1211.7
2014-Oct-23 04:33N 37°25' W 024°05'1211.7
2014-Oct-23 03:33N 37°26' W 024°20'1211.9
2014-Oct-23 02:33N 37°28' W 024°35'1212.0
2014-Oct-23 01:33N 37°29' W 024°50'1211.8
2014-Oct-23 00:33N 37°30' W 025°05'1211.8
2014-Oct-22 23:34N 37°30' W 025°19'1211.5
2014-Oct-22 22:33N 37°30' W 025°34'1111.4
2014-Oct-22 21:33N 37°29' W 025°48'1111.5
2014-Oct-22 20:33N 37°29' W 026°03'1111.3
2014-Oct-22 19:33N 37°29' W 026°17'1111.2
2014-Oct-22 18:33N 37°29' W 026°31'1111.4
2014-Oct-22 17:33N 37°29' W 026°45'1111.3
2014-Oct-22 16:33N 37°28' W 026°60'3311.0
2014-Oct-22 13:32N 37°28' W 027°41'1010.2
2014-Oct-22 12:33N 37°28' W 027°54'1010.1
2014-Oct-22 11:33N 37°28' W 028°07'10 9.9
2014-Oct-22 10:33N 37°27' W 028°19'10 9.8
2014-Oct-22 09:33N 37°27' W 028°32'10 9.8
2014-Oct-22 08:33N 37°27' W 028°44'10 9.9
2014-Oct-22 07:33N 37°27' W 028°56'1010.2
2014-Oct-22 06:33N 37°27' W 029°09'1010.3
2014-Oct-22 05:33N 37°26' W 029°22'1010.5
2014-Oct-22 04:34N 37°26' W 029°35'1110.5
2014-Oct-22 03:29N 37°26' W 029°49'  
Track history (hours):
 
Tides and Currents Weather Stations Pressure Air Temp Water Temp Dewpoint Dewpoint Depression Visibility Wind Speed Wind Dir Waves Ship Positions

Mct Breithorn

Last reported at 2014-Oct-27 12:12 UTC. Time now 2014-Nov-01 06:57 UTC.
Position N 36°60' E 002°13'.

Length 165 m; draft 8.5 m.

Type: Tanker. MMSI: 269848000.

Date/timePositionNaut miles runAvg speedWind from/ knotsBaromVisibWave heightAir tempDewpointWater temp
2014-Oct-27 12:12N 36°60' E 002°13'5012.2
2014-Oct-27 08:08N 36°47' E 001°13'812.9
2014-Oct-27 07:33N 36°46' E 001°04'1912.9
2014-Oct-27 06:05N 36°41' E 000°41'712.4
2014-Oct-27 05:34N 36°39' E 000°33'1312.6
2014-Oct-27 04:34N 36°36' E 000°18'4212.4
2014-Oct-27 01:08N 36°25' W 000°33'712.0
2014-Oct-27 00:32N 36°24' W 000°42'2411.9
2014-Oct-26 22:33N 36°21' W 001°11'3313.3
2014-Oct-26 20:04N 36°18' W 001°52'913.2
2014-Oct-26 19:25N 36°17' W 002°02'15513.0
2014-Oct-26 07:33N 35°60' W 005°12'1313.2
2014-Oct-26 06:33N 35°57' W 005°28'27012.2
2014-Oct-25 08:28N 36°18' W 011°01'1112.1
2014-Oct-25 07:33N 36°19' W 011°15'1212.5
2014-Oct-25 06:33N 36°21' W 011°31'1212.4
2014-Oct-25 05:33N 36°22' W 011°46'2512.3
2014-Oct-25 03:32N 36°25' W 012°16'1212.0
2014-Oct-25 02:33N 36°26' W 012°31'52712.2
2014-Oct-23 07:11N 37°22' W 023°26'812.1
2014-Oct-23 06:33N 37°23' W 023°36'1211.9
2014-Oct-23 05:34N 37°24' W 023°50'1211.7
2014-Oct-23 04:33N 37°25' W 024°05'1211.7
2014-Oct-23 03:33N 37°26' W 024°20'1211.9
2014-Oct-23 02:33N 37°28' W 024°35'1212.0
2014-Oct-23 01:33N 37°29' W 024°50'1211.8
2014-Oct-23 00:33N 37°30' W 025°05'1211.8
2014-Oct-22 23:34N 37°30' W 025°19'1211.5
2014-Oct-22 22:33N 37°30' W 025°34'1111.4
2014-Oct-22 21:33N 37°29' W 025°48'1111.5
2014-Oct-22 20:33N 37°29' W 026°03'1111.3
2014-Oct-22 19:33N 37°29' W 026°17'1111.2
2014-Oct-22 18:33N 37°29' W 026°31'1111.4
2014-Oct-22 17:33N 37°29' W 026°45'1111.3
2014-Oct-22 16:33N 37°28' W 026°60'3311.0
2014-Oct-22 13:32N 37°28' W 027°41'1010.2
2014-Oct-22 12:33N 37°28' W 027°54'1010.1
2014-Oct-22 11:33N 37°28' W 028°07'10 9.9
2014-Oct-22 10:33N 37°27' W 028°19'10 9.8
2014-Oct-22 09:33N 37°27' W 028°32'10 9.8
2014-Oct-22 08:33N 37°27' W 028°44'10 9.9
2014-Oct-22 07:33N 37°27' W 028°56'1010.2
2014-Oct-22 06:33N 37°27' W 029°09'1010.3
2014-Oct-22 05:33N 37°26' W 029°22'1010.5
2014-Oct-22 04:34N 37°26' W 029°35'1110.5
2014-Oct-22 03:29N 37°26' W 029°49'  

Dump ship's entire track history